LFMD/CEQ METAR and TAF weather

Enter ICAO airport designator
Station Type Date Time Source
LFMD METAR 2021/03/05 07:00 UTC NOAA

LFMD 050700Z AUTO VRB03KT 8000 NSC 06/04 Q1016 NOSIG


Station Type Date Time Source
LFMD Decoded METAR 2021/03/05 07:00 UTC NOAA

Cannes, France (LFMD) 43-33N 006-57E 9M
Mar 05, 2021 - 02:00 AM EST / 2021.03.05 0700 UTC
Wind: Variable at 3 MPH (3 KT):0
Visibility: 4 mile(s):0
Temperature: 42 F (6 C)
Dew Point: 39 F (4 C)
Relative Humidity: 86%
Pressure (altimeter): 30.00 in. Hg (1016 hPa)
ob: LFMD 050700Z AUTO VRB03KT 8000 NSC 06/04 Q1016 NOSIG
cycle: 7

Station Type Date Time Source
LFMD TAF 2021/03/05 03:42 UTC NOAA

TAF LFMD 050200Z 0503/0603 36005KT CAVOK PROB40
TEMPO 0503/0507 4000 BR
BECMG 0510/0512 10010KT
BECMG 0516/0519 36005KT
TEMPO 0521/0603 BKN014

Example: see airport list